KAVP/AVP METAR and TAF weather

Enter ICAO airport designator
Station Type Date Time Source
KAVP METAR 2020/01/20 15:54 UTC NOAA

KAVP 201554Z 34008KT 10SM FEW030 M06/M14 A3033 RMK AO2 SLP283 T10561139


Station Type Date Time Source
KAVP Decoded METAR 2020/01/20 15:54 UTC NOAA

WILKES-BARRE/SCRANTON INTERNATIONAL , PA, United States (KAVP) 41-20N 75-44W 291M
Jan 20, 2020 - 10:54 AM EST / 2020.01.20 1554 UTC
Wind: from the NNW (340 degrees) at 9 MPH (8 KT):0
Visibility: 10 mile(s):0
Sky conditions: mostly clear
Temperature: 21.9 F (-5.6 C)
Windchill: 12 F (-11 C):1
Dew Point: 7.0 F (-13.9 C)
Relative Humidity: 51%
Pressure (altimeter): 30.33 in. Hg (1027 hPa)
ob: KAVP 201554Z 34008KT 10SM FEW030 M06/M14 A3033 RMK AO2 SLP283 T10561139
cycle: 16

Station Type Date Time Source
KAVP TAF 2020/01/20 12:21 UTC NOAA

TAF KAVP 201120Z 2012/2112 35010G18KT P6SM BKN025
FM201400 34009KT P6SM FEW025

Example: see airport list